Time;durP1;ratioP1;P1;durP2;ratioP2;P2;SDS_P1;SDS_P2;PMS_P1;PMS_P2;Temp;Humidity;BMP_temperature;BMP_pressure;BME280_temperature;BME280_humidity;BME280_pressure;Samples;Min_cycle;Max_cycle;Signal;HPM_P1;HPM_P2
2022/04/28 00:00:08;;;;;;;8.83;6.43;;;10.70;99.70;;;;;;4957914;28;20202;-75
2022/04/28 00:02:35;;;;;;;7.33;6.70;;;10.60;99.60;;;;;;4948009;28;20192;-76
2022/04/28 00:05:07;;;;;;;8.50;6.53;;;10.50;99.70;;;;;;4967728;28;20583;-76
2022/04/28 00:07:34;;;;;;;8.60;6.50;;;10.40;99.90;;;;;;4955321;29;20544;-76
2022/04/28 00:10:04;;;;;;;9.53;6.93;;;10.50;99.90;;;;;;4949074;29;20190;-76
2022/04/28 00:12:32;;;;;;;8.10;7.17;;;10.50;99.90;;;;;;4954788;29;20551;-76
2022/04/28 00:14:59;;;;;;;8.87;7.37;;;10.50;99.90;;;;;;4964227;28;20564;-75
2022/04/28 00:17:27;;;;;;;9.27;6.77;;;10.40;99.90;;;;;;4958005;28;20206;-75
2022/04/28 00:20:09;;;;;;;11.00;7.20;;;10.50;99.90;;;;;;4941552;28;20205;-76
2022/04/28 00:22:37;;;;;;;8.17;6.30;;;10.40;99.50;;;;;;4955702;28;20213;-76
2022/04/28 00:25:07;;;;;;;8.50;6.97;;;10.40;99.90;;;;;;4957150;28;20707;-76
2022/04/28 00:27:35;;;;;;;8.63;6.93;;;10.50;99.90;;;;;;4970773;28;20221;-76
2022/04/28 00:30:03;;;;;;;9.67;6.80;;;10.40;99.90;;;;;;4962079;28;20198;-76
2022/04/28 00:32:30;;;;;;;10.57;7.63;;;10.30;99.90;;;;;;4955377;28;20223;-76
2022/04/28 00:34:57;;;;;;;8.60;6.63;;;10.40;99.90;;;;;;4961149;28;20205;-76
2022/04/28 00:37:25;;;;;;;7.30;6.60;;;10.20;99.90;;;;;;4966647;28;20236;-75
2022/04/28 00:39:53;;;;;;;9.03;7.27;;;10.10;99.90;;;;;;4949776;29;20687;-76
2022/04/28 00:42:21;;;;;;;11.47;6.70;;;10.10;99.90;;;;;;4954716;29;20217;-76
2022/04/28 00:44:49;;;;;;;8.00;7.20;;;10.00;99.90;;;;;;4960408;28;20872;-76
2022/04/28 00:47:16;;;;;;;9.57;7.83;;;10.00;99.90;;;;;;4953971;29;20213;-75
2022/04/28 00:52:31;;;;;;;9.67;6.80;;;9.90;99.90;;;;;;4953996;28;20660;-76
2022/04/28 00:54:59;;;;;;;10.77;7.40;;;9.90;99.90;;;;;;4956080;28;20198;-76
2022/04/28 00:57:31;;;;;;;10.60;7.60;;;9.90;99.90;;;;;;4960738;28;20595;-75
2022/04/28 00:59:58;;;;;;;9.27;7.10;;;9.90;99.90;;;;;;4966102;28;20290;-76
2022/04/28 01:02:25;;;;;;;9.20;7.10;;;9.80;99.90;;;;;;4971195;28;20193;-75
2022/04/28 01:04:53;;;;;;;9.93;7.60;;;9.80;99.90;;;;;;4953669;29;20209;-76
2022/04/28 01:07:20;;;;;;;8.33;7.43;;;9.80;99.90;;;;;;4956096;28;20668;-76
2022/04/28 01:09:48;;;;;;;10.70;7.40;;;9.80;99.90;;;;;;4957266;28;20245;-76
2022/04/28 01:12:20;;;;;;;9.70;7.43;;;9.70;99.90;;;;;;4961156;28;20562;-76
2022/04/28 01:14:52;;;;;;;10.00;7.40;;;9.60;99.90;;;;;;4963586;28;20198;-76
2022/04/28 01:17:21;;;;;;;8.10;7.27;;;9.50;99.90;;;;;;4968672;28;20190;-76
2022/04/28 01:19:59;;;;;;;8.77;7.50;;;9.50;99.90;;;;;;4960405;28;20235;-76
2022/04/28 01:22:28;;;;;;;9.37;7.57;;;9.70;99.90;;;;;;4941749;29;20205;-76
2022/04/28 01:25:24;;;;;;;12.23;8.10;;;9.60;99.90;;;;;;4958616;28;20217;-76
2022/04/28 01:27:52;;;;;;;9.57;8.13;;;9.70;99.90;;;;;;4966576;28;20233;-76
2022/04/28 01:30:20;;;;;;;10.93;7.53;;;9.60;99.90;;;;;;4964922;28;20309;-77
2022/04/28 01:32:57;;;;;;;10.20;8.03;;;9.50;99.90;;;;;;4953837;28;20213;-76
2022/04/28 01:35:25;;;;;;;12.10;7.77;;;9.50;99.90;;;;;;4953376;28;20185;-76
2022/04/28 01:37:54;;;;;;;8.70;7.50;;;9.50;99.90;;;;;;4943245;29;20611;-76
2022/04/28 01:40:22;;;;;;;10.37;7.93;;;9.40;99.90;;;;;;4962594;28;20197;-76
2022/04/28 01:42:56;;;;;;;10.20;8.27;;;9.40;99.90;;;;;;4954802;28;20190;-76
2022/04/28 01:45:24;;;;;;;9.00;8.10;;;9.60;99.90;;;;;;4944906;28;20218;-76
2022/04/28 01:48:14;;;;;;;13.27;8.73;;;9.70;99.90;;;;;;4944946;29;20218;-77
2022/04/28 01:56:51;;;;;;;12.93;8.63;;;9.30;99.90;;;;;;4941296;29;20215;-76
2022/04/28 02:00:06;;;;;;;12.97;8.83;;;9.10;99.90;;;;;;4921295;29;20264;-76
2022/04/28 02:02:48;;;;;;;9.43;8.13;;;9.10;99.90;;;;;;4907098;29;20199;-76
2022/04/28 02:05:15;;;;;;;11.47;8.17;;;9.30;99.90;;;;;;4922012;29;20238;-77
2022/04/28 02:07:44;;;;;;;11.23;8.50;;;9.30;99.90;;;;;;4955780;28;20249;-76
2022/04/28 02:10:13;;;;;;;12.90;9.10;;;9.20;99.90;;;;;;4943136;29;20203;-76
2022/04/28 02:12:50;;;;;;;13.47;8.50;;;9.20;99.90;;;;;;4946784;29;20210;-77
2022/04/28 02:15:37;;;;;;;13.10;9.30;;;9.10;99.90;;;;;;4952223;28;20225;-77
2022/04/28 02:18:10;;;;;;;11.87;8.50;;;8.80;99.90;;;;;;4950558;28;20603;-76
2022/04/28 02:20:38;;;;;;;11.07;8.83;;;8.90;99.90;;;;;;4946909;28;20206;-76
2022/04/28 02:23:06;;;;;;;13.17;9.90;;;9.00;99.90;;;;;;4969564;28;20201;-76
2022/04/28 02:25:38;;;;;;;12.43;8.73;;;9.00;99.90;;;;;;4953878;28;20240;-77
2022/04/28 02:28:06;;;;;;;11.80;9.40;;;8.80;99.90;;;;;;4965116;28;20221;-76
2022/04/28 02:30:33;;;;;;;13.63;9.77;;;8.80;99.90;;;;;;4949797;29;20644;-77
2022/04/28 02:33:10;;;;;;;9.90;8.67;;;8.70;99.90;;;;;;4951429;28;20207;-76
2022/04/28 02:35:47;;;;;;;12.37;9.43;;;8.80;99.90;;;;;;4965268;28;20201;-76
2022/04/28 02:38:15;;;;;;;13.13;9.40;;;8.80;99.90;;;;;;4941110;29;20231;-76
2022/04/28 02:40:44;;;;;;;12.83;8.93;;;8.90;99.90;;;;;;4948397;28;20206;-76
2022/04/28 02:43:12;;;;;;;10.10;8.70;;;9.00;99.90;;;;;;4965416;28;20206;-76
2022/04/28 02:45:40;;;;;;;13.20;9.13;;;9.00;99.90;;;;;;4947968;28;20703;-76
2022/04/28 02:48:09;;;;;;;11.80;9.67;;;8.90;99.90;;;;;;4946167;28;20221;-76
2022/04/28 02:50:38;;;;;;;13.20;9.87;;;9.00;99.90;;;;;;4947543;28;20214;-76
2022/04/28 02:53:05;;;;;;;12.80;9.37;;;8.90;99.90;;;;;;4952720;28;20206;-76
2022/04/28 02:55:39;;;;;;;12.53;10.07;;;9.00;99.90;;;;;;4950785;28;20557;-76
2022/04/28 02:58:22;;;;;;;12.17;9.77;;;8.80;99.90;;;;;;4944710;29;20660;-75
2022/04/28 03:00:53;;;;;;;14.23;9.77;;;8.80;99.90;;;;;;4946672;28;20209;-76
2022/04/28 03:03:20;;;;;;;15.27;9.93;;;8.70;99.90;;;;;;4951351;28;20523;-76
2022/04/28 03:11:32;;;;;;;14.87;9.90;;;8.80;99.90;;;;;;4929034;29;20193;-76
2022/04/28 03:14:01;;;;;;;13.07;10.23;;;8.60;99.90;;;;;;4935764;28;20225;-77
2022/04/28 03:16:30;;;;;;;15.63;10.00;;;8.60;99.90;;;;;;4952334;28;20190;-76
2022/04/28 03:19:04;;;;;;;12.77;9.77;;;8.70;99.90;;;;;;4956896;28;20229;-75
2022/04/28 03:21:42;;;;;;;15.27;10.20;;;8.70;99.90;;;;;;4943718;28;20208;-75
2022/04/28 03:24:11;;;;;;;13.40;9.70;;;8.90;99.90;;;;;;4964050;28;20569;-75
2022/04/28 03:26:39;;;;;;;13.70;10.60;;;8.90;99.90;;;;;;4968461;28;20232;-75
2022/04/28 03:29:12;;;;;;;13.23;10.23;;;8.90;99.90;;;;;;4948426;28;20221;-75
2022/04/28 03:31:40;;;;;;;15.87;10.47;;;8.50;99.90;;;;;;4947457;28;20203;-75
2022/04/28 03:34:24;;;;;;;14.07;10.10;;;8.50;99.90;;;;;;4963722;28;20205;-75
2022/04/28 03:36:58;;;;;;;12.40;10.80;;;8.70;99.90;;;;;;4952549;28;20194;-76
2022/04/28 03:39:37;;;;;;;15.97;11.17;;;8.50;99.90;;;;;;4945500;28;20583;-75
2022/04/28 03:42:06;;;;;;;13.83;10.50;;;8.40;99.90;;;;;;4958409;28;20202;-75
2022/04/28 03:44:35;;;;;;;13.40;9.87;;;8.30;99.90;;;;;;4947844;28;20690;-76
2022/04/28 03:47:03;;;;;;;14.23;9.90;;;8.40;99.90;;;;;;4960633;28;20241;-75
2022/04/28 03:49:31;;;;;;;13.27;10.17;;;8.30;99.90;;;;;;4945993;28;20224;-75
2022/04/28 03:51:58;;;;;;;15.53;11.27;;;8.10;99.90;;;;;;4950174;28;20205;-76
2022/04/28 03:54:39;;;;;;;15.53;10.60;;;8.10;99.90;;;;;;4951596;29;20216;-75
2022/04/28 03:57:08;;;;;;;16.43;11.27;;;8.20;99.90;;;;;;4954331;28;20678;-75
2022/04/28 03:59:38;;;;;;;14.73;11.53;;;8.30;99.90;;;;;;4941918;29;20218;-76
2022/04/28 04:02:31;;;;;;;17.40;10.97;;;8.30;99.90;;;;;;4952211;28;20587;-75
2022/04/28 04:05:00;;;;;;;14.73;10.63;;;8.10;99.90;;;;;;4951212;28;20664;-75
2022/04/28 04:07:30;;;;;;;14.90;11.40;;;8.10;99.90;;;;;;4950302;28;20204;-75
2022/04/28 04:10:32;;;;;;;14.13;10.87;;;8.00;99.90;;;;;;4943978;28;20702;-75
2022/04/28 04:13:02;;;;;;;14.70;11.27;;;8.10;99.90;;;;;;4965707;28;20561;-75
2022/04/28 04:15:30;;;;;;;15.63;11.40;;;8.20;99.90;;;;;;4957163;28;20182;-75
2022/04/28 04:18:09;;;;;;;14.03;10.73;;;8.20;99.90;;;;;;4944222;29;20225;-75
2022/04/28 04:20:56;;;;;;;16.37;11.70;;;8.30;99.90;;;;;;4946049;28;20649;-75
2022/04/28 04:23:24;;;;;;;16.13;11.17;;;8.30;99.90;;;;;;4948897;29;20202;-76
2022/04/28 04:25:51;;;;;;;18.93;11.40;;;8.30;99.90;;;;;;4951091;28;20240;-75
2022/04/28 04:28:21;;;;;;;16.47;11.63;;;8.10;99.90;;;;;;4965176;28;20222;-75
2022/04/28 04:34:26;;;;;;;14.57;10.73;;;8.00;99.90;;;;;;4950940;28;20205;-75
2022/04/28 04:36:54;;;;;;;17.87;11.87;;;7.90;99.90;;;;;;4966899;28;20197;-75
2022/04/28 04:39:22;;;;;;;14.47;11.53;;;7.90;99.90;;;;;;4946397;28;20257;-75
2022/04/28 04:41:49;;;;;;;15.80;12.00;;;7.90;99.90;;;;;;4950240;28;20206;-75
2022/04/28 04:44:17;;;;;;;16.17;10.70;;;7.80;99.90;;;;;;4967023;28;20198;-75
2022/04/28 04:46:49;;;;;;;18.80;12.53;;;7.70;99.90;;;;;;4961590;28;20684;-75
2022/04/28 04:49:25;;;;;;;15.17;12.10;;;7.90;99.90;;;;;;4946783;28;20699;-75
2022/04/28 04:52:15;;;;;;;17.30;12.40;;;8.00;99.90;;;;;;4962388;28;20194;-75
2022/04/28 04:54:57;;;;;;;18.27;13.10;;;7.90;99.90;;;;;;4969527;28;20198;-75
2022/04/28 04:57:25;;;;;;;19.33;14.20;;;7.90;99.90;;;;;;4955074;29;20670;-75
2022/04/28 04:59:52;;;;;;;18.63;13.87;;;7.90;99.90;;;;;;4950716;29;20197;-75
2022/04/28 05:02:23;;;;;;;17.63;13.67;;;7.80;99.90;;;;;;4951649;28;20209;-75
2022/04/28 05:05:29;;;;;;;18.77;13.30;;;7.80;99.90;;;;;;4957944;28;20193;-75
2022/04/28 05:08:09;;;;;;;17.30;12.77;;;7.80;99.90;;;;;;4947084;28;20487;-75
2022/04/28 05:10:42;;;;;;;16.13;12.23;;;8.00;99.90;;;;;;4959429;28;20587;-75
2022/04/28 05:13:11;;;;;;;18.93;13.73;;;8.10;99.90;;;;;;4949341;29;20531;-75
2022/04/28 05:16:09;;;;;;;16.63;12.20;;;8.40;99.90;;;;;;4952608;28;20186;-75
2022/04/28 05:19:07;;;;;;;16.13;12.57;;;8.60;99.90;;;;;;4942863;28;20237;-76
2022/04/28 05:22:09;;;;;;;19.97;13.10;;;8.70;99.90;;;;;;4977780;23;20227;-78
2022/04/28 05:24:57;;;;;;;16.50;11.83;;;8.90;99.90;;;;;;4974844;28;20196;-78
2022/04/28 05:27:48;;;;;;;18.87;11.80;;;9.00;99.90;;;;;;4973625;28;20221;-78
2022/04/28 05:30:36;;;;;;;16.77;12.63;;;9.10;99.90;;;;;;4964414;28;20201;-78
2022/04/28 05:33:27;;;;;;;14.83;11.67;;;9.20;99.90;;;;;;4973066;28;20229;-78
2022/04/28 05:36:22;;;;;;;16.40;12.00;;;9.00;99.90;;;;;;4951775;28;20205;-78
2022/04/28 05:38:49;;;;;;;17.83;12.10;;;9.10;99.90;;;;;;4971226;28;20209;-78
2022/04/28 05:41:20;;;;;;;18.80;12.90;;;9.10;99.90;;;;;;4978976;28;20212;-78
2022/04/28 05:46:33;;;;;;;18.63;12.47;;;9.50;99.90;;;;;;4959443;28;20206;-79
2022/04/28 05:49:03;;;;;;;19.03;12.67;;;9.60;99.90;;;;;;4969960;28;20217;-79
2022/04/28 05:51:31;;;;;;;15.70;11.90;;;9.80;99.90;;;;;;4954096;28;20225;-78
2022/04/28 05:54:06;;;;;;;21.20;13.93;;;9.70;99.90;;;;;;4967752;28;20579;-79
2022/04/28 05:56:33;;;;;;;17.73;12.57;;;9.70;99.90;;;;;;4950373;28;20213;-79
2022/04/28 05:59:03;;;;;;;18.97;12.13;;;9.80;99.90;;;;;;4977189;28;20209;-79
2022/04/28 06:01:47;;;;;;;17.63;12.60;;;9.70;99.90;;;;;;4959337;28;20255;-79
2022/04/28 06:04:18;;;;;;;15.73;12.07;;;9.70;99.90;;;;;;4953619;28;20198;-79
2022/04/28 06:06:50;;;;;;;19.23;13.77;;;9.60;99.90;;;;;;4972384;28;20213;-78
2022/04/28 06:09:47;;;;;;;20.93;12.30;;;9.70;99.90;;;;;;4957188;28;20210;-78
2022/04/28 06:12:17;;;;;;;16.63;12.43;;;9.60;99.90;;;;;;4963105;28;20233;-79
2022/04/28 06:15:06;;;;;;;16.40;11.37;;;9.60;99.90;;;;;;4949102;28;20205;-78
2022/04/28 06:18:06;;;;;;;18.43;12.10;;;9.80;99.90;;;;;;4941915;28;20194;-78
2022/04/28 06:20:34;;;;;;;19.67;12.23;;;10.00;99.90;;;;;;4948677;28;20210;-78
2022/04/28 06:23:07;;;;;;;16.47;11.17;;;10.10;99.90;;;;;;4954408;28;20229;-78
2022/04/28 06:25:40;;;;;;;16.33;10.23;;;10.00;99.90;;;;;;4948302;28;20205;-78
2022/04/28 06:28:09;;;;;;;13.93;10.47;;;10.10;99.90;;;;;;4951089;28;20220;-79
2022/04/28 06:30:38;;;;;;;16.70;12.00;;;10.10;99.90;;;;;;4951754;28;20690;-78
2022/04/28 06:33:32;;;;;;;18.20;11.90;;;9.80;99.90;;;;;;4946485;28;20222;-80
2022/04/28 06:36:11;;;;;;;19.97;11.93;;;9.50;99.90;;;;;;4963507;28;20581;-77
2022/04/28 06:38:42;;;;;;;20.83;11.63;;;9.90;99.90;;;;;;4960163;28;20213;-80
2022/04/28 06:41:12;;;;;;;16.70;11.77;;;10.20;99.90;;;;;;4955457;28;20564;-80
2022/04/28 06:43:45;;;;;;;16.67;11.43;;;10.10;99.90;;;;;;4944693;28;20210;-79
2022/04/28 06:46:31;;;;;;;15.40;10.50;;;9.80;99.90;;;;;;4956318;28;20218;-80
2022/04/28 06:49:17;;;;;;;16.80;11.47;;;10.00;99.90;;;;;;4971320;28;20211;-80
2022/04/28 06:51:59;;;;;;;17.47;11.57;;;9.80;99.90;;;;;;4961030;28;20590;-78
2022/04/28 06:54:47;;;;;;;17.70;11.67;;;9.80;99.90;;;;;;4946711;28;20212;-79
2022/04/28 06:57:20;;;;;;;16.97;10.70;;;9.80;99.90;;;;;;4976130;28;20185;-79
2022/04/28 06:59:49;;;;;;;15.70;11.50;;;9.80;99.90;;;;;;4990822;28;20200;-79
2022/04/28 07:02:37;;;;;;;20.33;11.50;;;9.80;99.90;;;;;;4970705;28;20564;-79
2022/04/28 07:05:05;;;;;;;14.13;10.77;;;10.20;99.90;;;;;;4950667;28;20213;-79
2022/04/28 07:07:32;;;;;;;17.20;12.30;;;10.10;99.90;;;;;;4973573;28;20231;-79
2022/04/28 07:10:05;;;;;;;15.07;10.50;;;10.30;99.90;;;;;;4971333;28;20222;-79
2022/04/28 07:12:36;;;;;;;20.03;10.93;;;10.50;99.90;;;;;;4954079;28;20229;-79
2022/04/28 07:15:27;;;;;;;17.03;10.90;;;10.70;99.90;;;;;;4923252;28;20218;-79
2022/04/28 07:18:17;;;;;;;14.40;11.63;;;10.50;99.90;;;;;;4947637;28;20225;-79
2022/04/28 07:20:45;;;;;;;13.63;10.70;;;10.60;99.90;;;;;;4957507;28;20221;-79
2022/04/28 07:23:26;;;;;;;13.90;12.27;;;10.70;99.90;;;;;;4955479;28;20229;-79
2022/04/28 07:25:55;;;;;;;15.87;11.37;;;10.60;99.90;;;;;;4976848;28;20605;-79
2022/04/28 07:28:22;;;;;;;18.60;12.77;;;10.70;99.90;;;;;;4973555;28;20216;-79
2022/04/28 07:31:16;;;;;;;14.43;10.93;;;11.00;99.90;;;;;;4942384;28;20193;-79
2022/04/28 07:34:16;;;;;;;13.43;11.50;;;10.90;99.90;;;;;;4921572;28;20205;-79
2022/04/28 07:37:24;;;;;;;15.20;11.20;;;11.10;99.90;;;;;;4926488;29;20197;-79
2022/04/28 07:40:24;;;;;;;15.43;11.63;;;11.20;99.90;;;;;;4905517;29;20198;-79
2022/04/28 07:42:57;;;;;;;17.20;11.30;;;11.40;99.90;;;;;;4954868;28;20214;-79
2022/04/28 07:45:25;;;;;;;15.50;11.77;;;11.50;99.90;;;;;;4953142;28;20193;-79
2022/04/28 07:47:54;;;;;;;19.53;11.60;;;11.40;99.90;;;;;;4973316;28;20217;-79
2022/04/28 07:50:27;;;;;;;15.40;11.87;;;11.50;99.90;;;;;;4964627;28;20201;-79
2022/04/28 07:53:05;;;;;;;17.03;11.10;;;11.40;99.90;;;;;;4966638;28;20229;-79
2022/04/28 07:55:33;;;;;;;16.20;12.00;;;11.50;99.90;;;;;;4952506;28;20197;-79
2022/04/28 07:58:04;;;;;;;21.87;11.93;;;11.50;99.70;;;;;;4973343;28;20193;-79
2022/04/28 08:00:52;;;;;;;15.03;10.90;;;11.50;99.40;;;;;;4960556;28;20197;-79
2022/04/28 08:03:22;;;;;;;17.17;12.10;;;11.60;99.40;;;;;;4955843;28;20225;-79
2022/04/28 08:05:53;;;;;;;15.77;11.73;;;11.60;99.40;;;;;;4978639;28;20200;-79
2022/04/28 08:08:21;;;;;;;17.58;12.70;;;11.50;99.50;;;;;;4973827;28;20209;-79
2022/04/28 08:10:49;;;;;;;17.33;11.37;;;11.80;99.70;;;;;;4974719;28;20671;-79
2022/04/28 08:13:20;;;;;;;19.93;12.60;;;11.90;99.70;;;;;;4959353;28;20228;-79
2022/04/28 08:16:05;;;;;;;18.58;12.88;;;12.00;99.70;;;;;;4970778;28;20201;-79
2022/04/28 08:18:41;;;;;;;19.73;13.77;;;11.80;99.90;;;;;;4937552;29;20202;-79
2022/04/28 08:21:13;;;;;;;16.13;12.52;;;11.90;99.90;;;;;;4947620;29;20198;-79
2022/04/28 08:23:48;;;;;;;22.90;16.30;;;12.10;99.00;;;;;;4953007;28;20210;-79
2022/04/28 08:26:15;;;;;;;20.40;14.83;;;12.10;98.30;;;;;;4988517;28;20212;-79
2022/04/28 08:28:46;;;;;;;18.65;14.07;;;12.20;98.20;;;;;;4972641;28;20217;-79
2022/04/28 08:31:14;;;;;;;19.35;13.27;;;12.30;98.30;;;;;;4977795;28;20193;-79
2022/04/28 08:33:41;;;;;;;20.48;13.93;;;12.40;98.30;;;;;;4954287;28;20210;-79
2022/04/28 08:36:12;;;;;;;21.67;16.10;;;12.40;97.80;;;;;;4980023;28;20197;-79
2022/04/28 08:38:41;;;;;;;23.02;17.75;;;12.40;97.90;;;;;;4975284;28;20675;-78
2022/04/28 08:41:12;;;;;;;23.52;16.48;;;12.50;97.80;;;;;;4975422;28;20547;-78
2022/04/28 08:44:01;;;;;;;21.80;16.20;;;12.30;98.50;;;;;;4956537;28;20213;-78
2022/04/28 08:49:15;;;;;;;27.85;17.73;;;12.60;98.80;;;;;;4979343;28;20214;-78
2022/04/28 08:51:46;;;;;;;22.45;16.88;;;12.60;98.00;;;;;;4980603;28;20228;-77
2022/04/28 08:54:15;;;;;;;23.17;16.45;;;12.50;98.70;;;;;;4969062;28;20198;-78
2022/04/28 08:56:42;;;;;;;21.67;16.38;;;12.50;98.10;;;;;;4975777;28;20205;-77
2022/04/28 08:59:13;;;;;;;21.88;15.82;;;12.70;98.80;;;;;;4957968;28;20197;-77
2022/04/28 09:01:45;;;;;;;23.98;15.98;;;13.00;98.60;;;;;;4959555;28;20236;-77
2022/04/28 09:04:41;;;;;;;22.02;15.60;;;13.10;97.50;;;;;;4941462;28;20203;-77
2022/04/28 09:07:34;;;;;;;17.90;12.68;;;13.10;96.90;;;;;;4949824;28;20201;-77
2022/04/28 09:10:30;;;;;;;14.00;11.15;;;13.30;97.80;;;;;;4965557;28;20197;-76
2022/04/28 09:16:11;;;;;;;12.45;8.77;;;14.50;97.50;;;;;;4946472;28;20199;-76
2022/04/28 09:18:40;;;;;;;12.25;9.85;;;15.00;96.40;;;;;;4965624;28;20186;-78
2022/04/28 09:21:08;;;;;;;13.48;10.43;;;15.00;95.00;;;;;;4957209;28;20202;-76
2022/04/28 09:23:37;;;;;;;12.88;11.07;;;14.80;94.80;;;;;;4953611;28;20225;-77
2022/04/28 09:26:05;;;;;;;14.30;11.85;;;14.40;93.70;;;;;;4976142;28;20210;-77
2022/04/28 09:29:02;;;;;;;16.42;12.85;;;14.30;94.10;;;;;;4956007;28;20217;-77
2022/04/28 09:31:34;;;;;;;14.35;11.98;;;14.00;95.10;;;;;;4974130;28;20201;-77
2022/04/28 09:34:28;;;;;;;18.23;13.48;;;13.90;95.50;;;;;;4942845;28;20201;-77
2022/04/28 09:37:40;;;;;;;20.90;12.52;;;13.90;96.60;;;;;;4954853;28;20202;-77
2022/04/28 09:42:58;;;;;;;14.52;12.20;;;13.80;95.50;;;;;;4973442;28;20747;-77
2022/04/28 09:45:33;;;;;;;14.88;12.57;;;13.70;96.20;;;;;;4956732;28;20195;-77
2022/04/28 09:48:05;;;;;;;17.70;13.25;;;13.60;95.60;;;;;;4980404;28;20220;-77
2022/04/28 09:50:41;;;;;;;18.13;12.98;;;13.70;96.00;;;;;;4960578;28;20546;-77
2022/04/28 09:53:30;;;;;;;17.20;12.32;;;13.80;95.00;;;;;;4953509;28;20691;-77
2022/04/28 09:56:26;;;;;;;16.58;13.32;;;14.00;95.60;;;;;;4947710;28;20654;-77
2022/04/28 09:59:00;;;;;;;17.13;11.98;;;14.10;95.60;;;;;;4950610;28;20194;-76
2022/04/28 10:01:29;;;;;;;16.75;12.27;;;14.20;95.60;;;;;;4946967;28;20214;-76
2022/04/28 10:04:04;;;;;;;16.15;12.77;;;13.80;95.90;;;;;;4962118;28;20205;-76
2022/04/28 10:06:52;;;;;;;18.05;11.77;;;14.10;96.40;;;;;;4945213;28;20663;-77
2022/04/28 10:09:28;;;;;;;12.80;10.50;;;14.10;94.30;;;;;;4966122;28;20229;-77
2022/04/28 10:12:01;;;;;;;16.90;12.60;;;14.20;94.00;;;;;;4944580;28;20308;-77
2022/04/28 10:14:39;;;;;;;15.50;10.88;;;14.50;94.00;;;;;;4947093;28;20195;-77
2022/04/28 10:17:12;;;;;;;15.60;12.43;;;14.70;93.40;;;;;;4947799;28;20430;-77
2022/04/28 10:19:55;;;;;;;17.75;12.15;;;14.70;92.60;;;;;;4958294;28;20206;-77
2022/04/28 10:22:46;;;;;;;14.75;12.23;;;14.80;92.50;;;;;;4969417;28;20243;-78
2022/04/28 10:35:02;;;;;;;16.05;12.52;;;14.80;92.50;;;;;;4961285;28;20192;-78
2022/04/28 10:37:34;;;;;;;15.25;11.48;;;14.50;92.00;;;;;;4948457;28;20218;-77
2022/04/28 10:40:03;;;;;;;15.88;11.50;;;14.50;92.10;;;;;;4971889;28;20205;-78
2022/04/28 10:42:56;;;;;;;15.00;12.15;;;14.70;90.30;;;;;;4944931;28;20302;-77
2022/04/28 10:45:25;;;;;;;12.73;11.38;;;14.90;90.90;;;;;;4942998;28;20213;-77
2022/04/28 10:48:21;;;;;;;14.80;11.93;;;15.20;90.90;;;;;;4951807;28;20189;-78
2022/04/28 10:51:12;;;;;;;13.10;11.60;;;15.30;89.40;;;;;;4947157;28;20201;-78
2022/04/28 10:54:24;;;;;;;13.07;11.18;;;15.30;87.90;;;;;;4963948;28;20202;-78
2022/04/28 10:57:06;;;;;;;18.45;12.30;;;15.40;88.80;;;;;;4972061;28;20726;-78
2022/04/28 10:59:38;;;;;;;13.80;11.30;;;15.20;89.00;;;;;;4953185;28;20193;-78
2022/04/28 11:02:51;;;;;;;12.68;10.60;;;15.40;90.20;;;;;;4950095;28;20309;-78
2022/04/28 11:05:46;;;;;;;13.60;11.20;;;15.70;90.30;;;;;;4946550;28;20201;-78
2022/04/28 11:08:26;;;;;;;16.83;12.18;;;15.80;90.00;;;;;;4959979;28;20201;-78
2022/04/28 11:11:04;;;;;;;16.30;12.18;;;15.70;87.80;;;;;;4967053;28;20220;-78
2022/04/28 11:13:33;;;;;;;14.23;11.60;;;15.60;89.60;;;;;;4955189;28;20217;-78
2022/04/28 11:16:02;;;;;;;16.48;12.38;;;15.90;90.40;;;;;;4952411;28;20205;-78
2022/04/28 11:18:30;;;;;;;14.32;11.95;;;16.10;90.10;;;;;;4956155;28;20197;-78
2022/04/28 11:21:02;;;;;;;15.32;12.63;;;16.30;88.40;;;;;;4973227;28;20201;-78
2022/04/28 11:23:41;;;;;;;15.25;12.77;;;16.40;85.30;;;;;;4954080;28;20313;-78
2022/04/28 11:26:21;;;;;;;16.35;11.30;;;16.20;90.80;;;;;;4946611;28;20208;-77
2022/04/28 11:28:49;;;;;;;15.52;11.73;;;16.50;85.70;;;;;;4956052;23;20242;-79
2022/04/28 11:31:29;;;;;;;14.30;11.88;;;16.70;84.30;;;;;;4931302;29;20225;-78
2022/04/28 11:33:57;;;;;;;16.33;11.60;;;16.50;85.90;;;;;;4930550;29;20202;-78
2022/04/28 11:36:29;;;;;;;15.85;12.73;;;16.70;85.70;;;;;;4946622;29;20217;-78
2022/04/28 11:39:00;;;;;;;15.82;13.35;;;16.70;84.60;;;;;;4924592;29;20699;-78
2022/04/28 11:41:34;;;;;;;16.20;12.82;;;16.80;84.40;;;;;;4933778;29;20706;-78
2022/04/28 11:44:05;;;;;;;13.70;12.27;;;16.50;87.60;;;;;;4927637;29;20202;-78
2022/04/28 11:46:36;;;;;;;15.02;12.15;;;16.60;86.80;;;;;;4927741;29;20203;-78
2022/04/28 11:49:04;;;;;;;13.05;11.45;;;16.60;87.10;;;;;;4930690;29;20607;-78
2022/04/28 11:51:34;;;;;;;16.13;12.85;;;16.80;89.30;;;;;;4931918;29;20202;-78
2022/04/28 11:54:21;;;;;;;15.00;12.55;;;16.90;80.20;;;;;;4928722;29;20206;-78
2022/04/28 11:56:48;;;;;;;16.27;12.30;;;17.10;79.70;;;;;;4930553;29;20194;-78
2022/04/28 11:59:16;;;;;;;14.75;12.02;;;17.40;75.50;;;;;;4947665;28;20230;-78
2022/04/28 12:01:44;;;;;;;14.50;12.48;;;17.30;75.70;;;;;;4939158;29;21019;-78
2022/04/28 12:04:14;;;;;;;16.85;12.63;;;17.60;75.00;;;;;;4937039;29;20206;-78
2022/04/28 12:06:46;;;;;;;13.75;11.82;;;17.50;73.50;;;;;;4951186;28;20225;-78
2022/04/28 12:14:47;;;;;;;16.90;11.23;;;17.50;76.10;;;;;;4958603;28;20205;-78
2022/04/28 12:20:01;;;;;;;16.10;12.40;;;17.80;75.40;;;;;;4938842;29;20220;-79
2022/04/28 12:22:35;;;;;;;13.48;11.98;;;18.10;73.60;;;;;;4939912;29;20206;-79
2022/04/28 12:25:09;;;;;;;14.27;12.15;;;18.30;74.00;;;;;;4935346;29;20217;-79
2022/04/28 12:27:39;;;;;;;15.45;12.32;;;18.30;73.50;;;;;;4953264;29;20209;-79
2022/04/28 12:30:10;;;;;;;14.35;11.52;;;18.00;71.80;;;;;;4939836;29;20237;-79
2022/04/28 12:32:45;;;;;;;14.00;11.88;;;17.90;72.90;;;;;;4936099;29;20683;-79
2022/04/28 12:35:26;;;;;;;16.02;11.15;;;18.10;74.10;;;;;;4936252;29;20193;-79
2022/04/28 12:37:59;;;;;;;13.93;11.27;;;18.20;72.10;;;;;;4932794;29;20206;-79
2022/04/28 12:40:35;;;;;;;14.23;11.00;;;18.70;70.60;;;;;;4938672;29;20221;-79
2022/04/28 12:43:36;;;;;;;13.00;10.95;;;18.70;70.90;;;;;;4938536;29;20198;-79
2022/04/28 12:46:05;;;;;;;12.55;10.40;;;19.10;67.30;;;;;;4934580;29;20201;-79
2022/04/28 12:48:34;;;;;;;14.15;11.98;;;19.30;67.90;;;;;;4954902;28;20206;-79
2022/04/28 12:51:12;;;;;;;14.30;12.05;;;19.30;66.80;;;;;;4937123;29;20207;-79
2022/04/28 12:53:41;;;;;;;12.82;10.65;;;18.60;65.90;;;;;;4936924;29;20191;-79
2022/04/28 12:56:14;;;;;;;12.82;11.18;;;19.10;65.30;;;;;;4951766;29;20708;-79
2022/04/28 12:58:43;;;;;;;14.20;11.82;;;19.00;64.00;;;;;;4934229;29;20238;-79
2022/04/28 13:01:13;;;;;;;14.25;11.55;;;18.50;64.50;;;;;;4938663;29;20543;-79
2022/04/28 13:03:52;;;;;;;12.63;10.90;;;18.90;66.90;;;;;;4953481;28;20201;-79
2022/04/28 13:06:21;;;;;;;15.35;11.50;;;19.30;67.10;;;;;;4933149;29;20291;-79
2022/04/28 13:08:54;;;;;;;15.25;11.80;;;19.00;63.50;;;;;;4935082;29;20233;-79
2022/04/28 13:11:25;;;;;;;12.93;11.52;;;19.30;65.50;;;;;;4935985;29;20222;-78
2022/04/28 13:13:53;;;;;;;14.27;10.57;;;19.10;65.80;;;;;;4952111;28;20214;-79
2022/04/28 13:16:25;;;;;;;14.55;11.07;;;19.20;65.10;;;;;;4931016;29;20225;-79
2022/04/28 13:18:55;;;;;;;12.50;10.57;;;19.30;61.30;;;;;;4935577;29;20228;-79
2022/04/28 13:21:56;;;;;;;12.77;10.70;;;19.20;59.80;;;;;;4932528;29;20198;-79
2022/04/28 13:24:56;;;;;;;13.75;10.18;;;19.60;61.00;;;;;;4952351;28;20553;-79
2022/04/28 13:27:28;;;;;;;14.77;10.05;;;20.00;61.30;;;;;;4932637;29;20206;-79
2022/04/28 13:29:55;;;;;;;14.63;10.48;;;19.90;62.50;;;;;;4934729;29;20218;-79
2022/04/28 13:32:23;;;;;;;13.38;10.68;;;19.70;63.50;;;;;;4934599;29;20209;-79
2022/04/28 13:34:50;;;;;;;12.93;9.90;;;19.90;58.70;;;;;;4934893;29;20218;-79
2022/04/28 13:37:17;;;;;;;12.20;10.00;;;20.00;57.50;;;;;;4932102;29;20209;-79
2022/04/28 13:39:45;;;;;;;14.07;10.88;;;20.10;56.40;;;;;;4934819;29;20688;-79
2022/04/28 13:42:12;;;;;;;12.38;10.13;;;20.10;54.80;;;;;;4936489;29;20198;-80
2022/04/28 13:45:06;;;;;;;13.27;10.18;;;20.20;56.10;;;;;;4936609;29;20194;-80
2022/04/28 13:47:34;;;;;;;13.80;10.15;;;20.20;57.40;;;;;;4949364;29;20198;-80
2022/04/28 13:50:01;;;;;;;11.02;8.60;;;20.80;56.20;;;;;;4933415;29;20229;-79
2022/04/28 13:52:28;;;;;;;12.30;9.27;;;20.70;54.50;;;;;;4946093;28;20205;-80
2022/04/28 13:54:56;;;;;;;11.25;8.85;;;20.70;53.80;;;;;;4949596;29;20546;-80
2022/04/28 13:57:23;;;;;;;10.65;9.30;;;20.40;53.40;;;;;;4932558;29;20673;-80
2022/04/28 13:59:50;;;;;;;11.80;9.20;;;21.00;53.80;;;;;;4950316;28;20218;-80
2022/04/28 14:02:19;;;;;;;10.50;9.35;;;21.20;53.70;;;;;;4932080;29;20203;-80